createdAt,value
2022-08-09T00:00:04.345Z,77049.69
2022-08-09T00:02:34.135Z,77049.69
2022-08-09T00:06:12.217Z,77051.69
2022-08-09T00:07:47.860Z,77047.72
2022-08-09T00:10:21.090Z,77053.69
2022-08-09T00:12:52.841Z,77051.69
2022-08-09T00:15:35.617Z,77049.69
2022-08-09T00:18:11.331Z,77067.59
2022-08-09T00:20:41.419Z,77079.50
2022-08-09T00:23:56.056Z,77095.41
2022-08-09T00:26:05.153Z,77091.44
2022-08-09T00:28:31.984Z,77091.44
2022-08-09T00:31:50.440Z,77095.41
2022-08-09T00:33:51.402Z,77097.41
2022-08-09T00:36:19.255Z,77101.38
2022-08-09T00:38:46.289Z,77093.44
2022-08-09T00:44:14.089Z,77097.41
2022-08-09T00:44:27.173Z,77091.44
2022-08-09T00:46:56.972Z,77089.44
2022-08-09T00:49:31.327Z,77083.50
2022-08-09T00:52:02.160Z,77089.44
2022-08-09T00:54:36.252Z,77093.44
2022-08-09T00:57:10.151Z,77099.38
2022-08-09T00:59:46.426Z,77091.44
2022-08-09T01:02:24.602Z,77095.41
2022-08-09T01:04:57.356Z,77103.38
2022-08-09T01:07:37.825Z,77105.34
2022-08-09T01:10:22.979Z,77105.34
2022-08-09T01:13:41.618Z,77117.28
2022-08-09T01:16:14.495Z,77127.22
2022-08-09T01:18:47.413Z,77119.25
2022-08-09T01:21:44.933Z,77117.28
2022-08-09T01:24:54.098Z,77123.25
2022-08-09T01:27:24.526Z,77119.25
2022-08-09T01:30:04.262Z,77117.28
2022-08-09T01:32:36.172Z,77115.28
2022-08-09T01:35:28.671Z,77115.28
2022-08-09T01:38:08.375Z,77115.28
2022-08-09T01:40:42.983Z,77113.31
2022-08-09T01:43:11.076Z,77111.31
2022-08-09T01:45:44.683Z,77103.38
2022-08-09T01:48:15.664Z,77095.41
2022-08-09T01:50:48.349Z,77095.41
2022-08-09T01:53:19.800Z,77081.50
2022-08-09T01:55:47.786Z,77075.53
2022-08-09T01:58:16.109Z,77079.50
2022-08-09T02:00:46.358Z,77087.47
2022-08-09T02:03:19.006Z,77091.44
2022-08-09T02:06:03.439Z,77097.41
2022-08-09T02:08:57.289Z,77099.38
2022-08-09T02:11:24.672Z,77087.47
2022-08-09T02:14:15.755Z,77097.41
2022-08-09T02:16:59.802Z,77089.44
2022-08-09T02:19:43.203Z,77095.41
2022-08-09T02:22:19.049Z,77105.34
2022-08-09T02:24:57.078Z,77109.31
2022-08-09T02:27:43.115Z,77095.41
2022-08-09T02:30:12.337Z,77103.38
2022-08-09T02:32:45.820Z,77099.38
2022-08-09T02:35:26.102Z,77097.41
2022-08-09T02:38:22.124Z,77103.38
2022-08-09T02:41:02.178Z,77111.31
2022-08-09T02:43:53.685Z,77107.34
2022-08-09T02:46:19.356Z,77095.41
2022-08-09T02:48:48.023Z,77113.31
2022-08-09T02:51:20.336Z,77113.31
2022-08-09T02:54:00.891Z,77117.28
2022-08-09T02:56:29.928Z,77131.19
2022-08-09T02:58:58.207Z,77135.16
2022-08-09T03:01:29.626Z,77135.16
2022-08-09T03:04:19.341Z,77131.19
2022-08-09T03:06:48.777Z,77131.19
2022-08-09T03:09:17.313Z,77127.22
2022-08-09T03:12:05.541Z,77139.13
2022-08-09T03:14:33.015Z,77137.16
2022-08-09T03:17:01.573Z,77135.16
2022-08-09T03:19:58.440Z,77129.19
2022-08-09T03:22:25.372Z,77127.22
2022-08-09T03:25:05.859Z,77131.19
2022-08-09T03:27:50.768Z,77127.22
2022-08-09T03:30:30.221Z,77125.22
2022-08-09T03:33:13.087Z,77131.19
2022-08-09T03:36:12.736Z,77129.19
2022-08-09T03:38:43.083Z,77125.22
2022-08-09T03:41:15.297Z,77131.19
2022-08-09T03:43:51.879Z,77141.13
2022-08-09T03:46:31.351Z,77147.09
2022-08-09T03:49:04.300Z,77145.09
2022-08-09T03:51:56.577Z,77149.06
2022-08-09T03:54:30.019Z,77155.03
2022-08-09T03:57:00.987Z,77159.00
2022-08-09T03:59:53.553Z,77159.00
2022-08-09T04:02:15.623Z,77161.00
2022-08-09T04:04:55.236Z,77155.03
2022-08-09T04:07:21.824Z,77161.00
2022-08-09T04:10:00.612Z,77155.03
2022-08-09T04:12:46.366Z,77163.00
2022-08-09T04:15:17.292Z,77174.91
2022-08-09T04:17:57.715Z,77170.94
2022-08-09T04:20:24.454Z,77163.00
2022-08-09T04:22:52.534Z,77149.06
2022-08-09T04:25:19.419Z,77151.06
2022-08-09T04:27:46.712Z,77163.00
2022-08-09T04:30:20.931Z,77159.00
2022-08-09T04:32:51.349Z,77163.00
2022-08-09T04:35:21.741Z,77174.91
2022-08-09T04:37:49.716Z,77170.94
2022-08-09T04:40:28.665Z,77170.94
2022-08-09T04:43:02.545Z,77163.00
2022-08-09T04:45:30.698Z,77159.00
2022-08-09T04:48:04.158Z,77147.09
2022-08-09T04:50:37.480Z,77153.06
2022-08-09T04:53:13.657Z,77153.06
2022-08-09T04:55:57.437Z,77157.03
2022-08-09T04:58:31.821Z,77161.00
2022-08-09T05:01:01.806Z,77149.06
2022-08-09T05:03:40.895Z,77139.13
2022-08-09T05:06:26.785Z,77149.06
2022-08-09T05:09:00.462Z,77139.13
2022-08-09T05:11:32.462Z,77143.13
2022-08-09T05:14:06.014Z,77137.16
2022-08-09T05:16:58.024Z,77121.25
2022-08-09T05:19:25.613Z,77117.28
2022-08-09T05:21:55.595Z,77103.38
2022-08-09T05:24:22.889Z,77095.41
2022-08-09T05:26:51.196Z,77079.50
2022-08-09T05:29:21.051Z,77087.47
2022-08-09T05:31:56.191Z,77075.53
2022-08-09T05:34:26.067Z,77059.63
2022-08-09T05:36:57.715Z,77047.72
2022-08-09T05:39:29.482Z,77045.72
2022-08-09T05:42:01.443Z,77047.72
2022-08-09T05:44:32.626Z,77039.75
2022-08-09T05:47:00.461Z,77031.81
2022-08-09T05:50:30.834Z,77021.88
2022-08-09T05:52:14.073Z,77009.94
2022-08-09T05:54:41.994Z,76994.06
2022-08-09T05:57:12.763Z,76986.09
2022-08-09T05:59:44.073Z,76974.19
2022-08-09T06:02:11.916Z,76960.25
2022-08-09T06:04:44.576Z,76964.25
2022-08-09T06:07:21.529Z,76944.38
2022-08-09T06:10:01.735Z,76934.44
2022-08-09T06:12:30.062Z,76932.44
2022-08-09T06:15:00.883Z,76918.53
2022-08-09T06:17:40.117Z,76912.56
2022-08-09T06:20:08.168Z,76910.59
2022-08-09T06:22:35.671Z,76908.59
2022-08-09T06:25:03.364Z,76904.63
2022-08-09T06:27:42.281Z,76904.63
2022-08-09T06:30:14.169Z,76904.63
2022-08-09T06:32:59.762Z,76896.66
2022-08-09T06:35:35.833Z,76880.78
2022-08-09T06:38:15.782Z,76856.94
2022-08-09T06:40:42.963Z,76876.78
2022-08-09T06:43:10.366Z,76876.78
2022-08-09T06:46:06.399Z,76858.91
2022-08-09T06:48:30.381Z,76864.88
2022-08-09T06:50:58.052Z,76860.91
2022-08-09T06:53:24.904Z,76854.94
2022-08-09T06:55:52.257Z,76858.91
2022-08-09T06:58:40.703Z,76843.00
2022-08-09T07:01:05.787Z,76843.00
2022-08-09T07:03:39.754Z,76854.94
2022-08-09T07:06:18.875Z,76841.03
2022-08-09T07:08:46.751Z,76821.16
2022-08-09T07:11:17.589Z,76823.13
2022-08-09T07:14:05.530Z,76819.16
2022-08-09T07:16:41.447Z,76823.13
2022-08-09T07:19:23.002Z,76831.09
2022-08-09T07:21:57.609Z,76835.06
2022-08-09T07:24:40.790Z,76811.22
2022-08-09T07:27:27.182Z,76817.19
2022-08-09T07:29:58.930Z,76817.19
2022-08-09T07:32:33.079Z,76815.19
2022-08-09T07:35:01.075Z,76817.19
2022-08-09T07:37:29.504Z,76815.19
2022-08-09T07:39:56.238Z,76797.31
2022-08-09T07:42:26.083Z,76793.34
2022-08-09T07:45:02.594Z,76779.41
2022-08-09T07:48:00.456Z,76793.34
2022-08-09T07:50:34.790Z,76789.34
2022-08-09T07:53:04.773Z,76781.41
2022-08-09T07:55:41.263Z,76785.38
2022-08-09T07:58:18.053Z,76769.47
2022-08-09T08:00:58.709Z,76737.69
2022-08-09T08:03:31.432Z,76709.88
2022-08-09T08:05:58.582Z,76688.00
2022-08-09T08:09:00.089Z,76668.13
2022-08-09T08:12:09.347Z,76662.16
2022-08-09T08:13:59.063Z,76644.28
2022-08-09T08:16:29.628Z,76628.38
2022-08-09T08:18:58.805Z,76614.47
2022-08-09T08:21:25.364Z,76590.63
2022-08-09T08:23:55.781Z,76576.72
2022-08-09T08:26:26.607Z,76574.72
2022-08-09T08:29:08.737Z,76568.78
2022-08-09T08:32:03.018Z,76544.94
2022-08-09T08:34:25.326Z,76538.97
2022-08-09T08:36:52.836Z,76515.13
2022-08-09T08:39:22.029Z,76501.22
2022-08-09T08:41:51.417Z,76497.22
2022-08-09T08:44:27.506Z,76463.44
2022-08-09T08:47:02.581Z,76453.50
2022-08-09T08:49:47.179Z,76443.59
2022-08-09T08:55:08.740Z,76407.81
2022-08-09T08:57:36.081Z,76403.84
2022-08-09T09:00:20.352Z,76407.81
2022-08-09T09:02:52.839Z,76407.81
2022-08-09T09:05:58.859Z,76411.78
2022-08-09T09:08:30.121Z,76399.88
2022-08-09T09:11:01.789Z,76381.97
2022-08-09T09:13:34.638Z,76364.09
2022-08-09T09:16:09.038Z,76381.97
2022-08-09T09:18:36.336Z,76362.09
2022-08-09T09:21:06.400Z,76352.19
2022-08-09T09:23:49.939Z,76332.31
2022-08-09T09:26:26.198Z,76338.25
2022-08-09T09:29:04.495Z,76314.41
2022-08-09T09:32:03.764Z,76316.41
2022-08-09T09:34:25.211Z,76304.50
2022-08-09T09:36:57.066Z,76296.53
2022-08-09T09:39:50.323Z,76296.53
2022-08-09T09:42:25.337Z,76292.56
2022-08-09T09:44:59.178Z,76292.56
2022-08-09T09:47:28.322Z,76272.69
2022-08-09T09:50:14.457Z,76244.88
2022-08-09T09:52:55.080Z,76250.84
2022-08-09T09:55:31.377Z,76248.84
2022-08-09T09:58:16.353Z,76221.03
2022-08-09T10:00:59.560Z,76211.09
2022-08-09T10:03:57.096Z,76205.13
2022-08-09T10:06:26.390Z,76191.22
2022-08-09T10:09:00.957Z,76179.31
2022-08-09T10:12:01.319Z,76181.28
2022-08-09T10:14:32.919Z,76191.22
2022-08-09T10:17:38.848Z,76169.38
2022-08-09T10:19:58.715Z,76181.28
2022-08-09T10:22:34.105Z,76171.34
2022-08-09T10:25:11.050Z,76143.53
2022-08-09T10:27:55.761Z,76127.66
2022-08-09T10:34:04.980Z,76111.75
2022-08-09T10:36:00.843Z,76113.75
2022-08-09T10:38:54.800Z,76129.63
2022-08-09T10:41:16.196Z,76139.56
2022-08-09T10:43:59.249Z,76147.50
2022-08-09T10:48:12.312Z,76125.66
2022-08-09T10:51:01.281Z,76077.97
2022-08-09T10:54:12.164Z,76028.31
2022-08-09T10:56:40.504Z,75998.50
2022-08-09T10:59:23.381Z,75980.63
2022-08-09T11:03:13.339Z,76008.44
2022-08-09T11:05:04.449Z,76012.41
2022-08-09T11:07:56.599Z,75980.63
2022-08-09T11:10:53.097Z,75972.66
2022-08-09T11:13:50.826Z,75968.69
2022-08-09T11:16:33.518Z,75992.53
2022-08-09T11:19:02.251Z,75982.59
2022-08-09T11:22:05.515Z,76008.44
2022-08-09T11:25:03.746Z,76040.22
2022-08-09T11:28:04.519Z,76044.19
2022-08-09T11:30:33.429Z,76022.34
2022-08-09T11:33:07.756Z,75976.66
2022-08-09T11:35:49.149Z,75932.94
2022-08-09T11:38:32.749Z,75897.16
2022-08-09T11:41:38.224Z,75857.44
2022-08-09T11:44:07.877Z,75821.69
2022-08-09T11:46:54.935Z,75805.78
2022-08-09T11:50:55.241Z,75813.72
2022-08-09T11:53:20.959Z,75803.78
2022-08-09T11:55:53.228Z,75809.75
2022-08-09T11:58:30.497Z,75787.91
2022-08-09T12:01:15.511Z,75819.69
2022-08-09T12:04:00.535Z,75811.75
2022-08-09T12:06:32.866Z,75789.88
2022-08-09T12:09:19.394Z,75775.97
2022-08-09T12:12:20.236Z,75779.94
2022-08-09T12:15:07.187Z,75764.06
2022-08-09T12:17:43.378Z,75835.59
2022-08-09T12:20:22.241Z,75869.34
2022-08-09T12:22:56.311Z,75909.09
2022-08-09T12:25:35.733Z,75915.06
2022-08-09T12:29:14.887Z,75913.06
2022-08-09T12:31:58.177Z,75913.06
2022-08-09T12:34:14.963Z,75907.09
2022-08-09T12:36:53.140Z,75962.75
2022-08-09T12:39:26.088Z,75950.81
2022-08-09T12:41:54.240Z,75956.78
2022-08-09T12:44:24.523Z,75930.94
2022-08-09T12:46:51.417Z,75913.06
2022-08-09T12:49:20.913Z,75903.13
2022-08-09T12:52:01.735Z,75883.25
2022-08-09T12:54:30.977Z,75869.34
2022-08-09T12:56:58.894Z,75863.41
2022-08-09T12:59:57.730Z,75885.25
2022-08-09T13:02:17.741Z,75887.22
2022-08-09T13:05:00.613Z,75901.16
2022-08-09T13:07:50.063Z,75901.16
2022-08-09T13:10:16.702Z,75889.22
2022-08-09T13:13:10.104Z,75847.50
2022-08-09T13:15:35.284Z,75801.81
2022-08-09T13:18:09.618Z,75750.16
2022-08-09T13:22:33.996Z,75734.25
2022-08-09T13:24:42.009Z,75770.03
2022-08-09T13:26:41.752Z,75764.06
2022-08-09T13:29:13.452Z,75760.09
2022-08-09T13:32:18.121Z,75758.09
2022-08-09T13:34:44.180Z,75740.22
2022-08-09T13:37:13.121Z,75730.28
2022-08-09T13:41:50.896Z,75732.28
2022-08-09T13:42:38.230Z,75748.16
2022-08-09T13:45:08.385Z,75730.28
2022-08-09T13:47:49.411Z,75770.03
2022-08-09T13:50:31.013Z,75821.69
2022-08-09T13:52:58.685Z,75871.34
2022-08-09T13:55:29.012Z,75881.28
2022-08-09T13:57:58.433Z,75871.34
2022-08-09T14:00:28.877Z,75873.31
2022-08-09T14:03:02.789Z,75897.16
2022-08-09T14:06:00.432Z,75895.19
2022-08-09T14:08:30.683Z,75883.25
2022-08-09T14:10:59.655Z,75899.16
2022-08-09T14:14:24.264Z,75873.31
2022-08-09T14:16:17.481Z,75891.22
2022-08-09T14:18:50.213Z,75899.16
2022-08-09T14:21:23.241Z,75879.28
2022-08-09T14:23:57.036Z,75889.22
2022-08-09T14:26:32.223Z,75887.22
2022-08-09T14:29:25.392Z,75895.19
2022-08-09T14:31:56.326Z,75855.44
2022-08-09T14:34:31.308Z,75827.63
2022-08-09T14:37:06.785Z,75801.81
2022-08-09T14:39:40.262Z,75768.03
2022-08-09T14:42:38.954Z,75758.09
2022-08-09T14:45:15.255Z,75760.09
2022-08-09T14:47:57.031Z,75764.06
2022-08-09T14:50:24.209Z,75777.97
2022-08-09T14:52:51.074Z,75787.91
2022-08-09T14:55:20.249Z,75825.66
2022-08-09T14:57:48.774Z,75819.69
2022-08-09T15:00:16.393Z,75770.03
2022-08-09T15:02:43.000Z,75815.72
2022-08-09T15:05:17.024Z,75813.72
2022-08-09T15:07:45.638Z,75593.22
2022-08-09T15:10:24.985Z,75466.06
2022-08-09T15:12:55.989Z,75555.47
2022-08-09T15:15:24.075Z,75666.72
2022-08-09T15:17:53.222Z,75760.09
2022-08-09T15:21:58.458Z,75835.59
2022-08-09T15:24:02.569Z,75875.31
2022-08-09T15:25:57.456Z,75831.59
2022-08-09T15:28:28.317Z,75831.59
2022-08-09T15:31:10.345Z,75827.63
2022-08-09T15:34:18.059Z,75744.19
2022-08-09T15:36:30.324Z,75714.41
2022-08-09T15:39:00.924Z,75674.66
2022-08-09T15:41:31.694Z,75541.56
2022-08-09T15:44:02.596Z,75368.72
2022-08-09T15:46:33.872Z,75251.53
2022-08-09T15:49:20.432Z,75211.78
2022-08-09T15:52:05.144Z,75233.66
2022-08-09T15:54:46.378Z,75297.22
2022-08-09T15:57:18.906Z,75400.50
2022-08-09T15:59:52.477Z,75474.00
2022-08-09T16:02:27.232Z,75543.53
2022-08-09T16:04:54.163Z,75652.81
2022-08-09T16:07:20.754Z,75706.44
2022-08-09T16:09:57.534Z,75748.16
2022-08-09T16:12:31.252Z,75768.03
2022-08-09T16:14:57.987Z,75817.69
2022-08-09T16:17:28.665Z,75835.59
2022-08-09T16:20:03.903Z,75861.41
2022-08-09T16:22:32.013Z,75869.34
2022-08-09T16:25:01.475Z,75873.31
2022-08-09T16:27:29.940Z,75885.25
2022-08-09T16:30:01.020Z,75877.31
2022-08-09T16:32:53.502Z,75891.22
2022-08-09T16:35:56.902Z,75913.06
2022-08-09T16:38:09.144Z,75934.91
2022-08-09T16:40:40.906Z,75962.75
2022-08-09T16:43:08.849Z,75968.69
2022-08-09T16:45:41.596Z,75998.50
2022-08-09T16:48:40.829Z,76000.47
2022-08-09T16:50:59.003Z,76018.38
2022-08-09T16:53:32.338Z,76032.28
2022-08-09T16:56:06.054Z,76034.25
2022-08-09T16:58:37.213Z,76064.06
2022-08-09T17:01:07.512Z,76066.06
2022-08-09T17:03:34.834Z,76093.88
2022-08-09T17:06:06.973Z,76087.91
2022-08-09T17:08:45.245Z,76081.94
2022-08-09T17:11:37.683Z,76095.84
2022-08-09T17:14:25.945Z,76117.72
2022-08-09T17:17:01.510Z,76121.69
2022-08-09T17:19:47.461Z,76141.56
2022-08-09T17:22:28.983Z,76149.50
2022-08-09T17:25:03.603Z,76151.50
2022-08-09T17:28:01.028Z,76173.34
2022-08-09T17:30:33.925Z,76185.25
2022-08-09T17:36:54.186Z,76232.94
2022-08-09T17:39:24.825Z,76248.84
2022-08-09T17:41:55.538Z,76256.78
2022-08-09T17:44:49.151Z,76276.66
2022-08-09T17:47:46.973Z,76280.66
2022-08-09T17:50:56.352Z,76302.50
2022-08-09T17:53:25.754Z,76304.50
2022-08-09T17:55:57.602Z,76316.41
2022-08-09T17:58:33.395Z,76338.25
2022-08-09T18:01:04.535Z,76332.31
2022-08-09T18:04:11.052Z,76328.34
2022-08-09T18:06:59.609Z,76358.13
2022-08-09T18:09:41.583Z,76391.91
2022-08-09T18:15:06.752Z,76403.84
2022-08-09T18:18:02.490Z,76403.84
2022-08-09T18:20:54.861Z,76417.75
2022-08-09T18:24:09.886Z,76427.69
2022-08-09T18:26:03.228Z,76443.59
2022-08-09T18:30:40.711Z,76455.50
2022-08-09T18:31:24.724Z,76459.47
2022-08-09T18:33:59.035Z,76491.28
2022-08-09T18:36:31.894Z,76511.16
2022-08-09T18:39:02.536Z,76513.13
2022-08-09T18:41:34.917Z,76533.00
2022-08-09T18:44:03.309Z,76554.84
2022-08-09T18:46:46.737Z,76566.78
2022-08-09T18:49:17.563Z,76582.69
2022-08-09T18:51:55.117Z,76592.63
2022-08-09T18:54:29.396Z,76612.50
2022-08-09T18:57:05.339Z,76618.44
2022-08-09T18:59:37.336Z,76646.28
2022-08-09T19:02:15.210Z,76662.16
2022-08-09T19:04:41.770Z,76658.19
2022-08-09T19:07:16.254Z,76674.09
2022-08-09T19:10:13.814Z,76674.09
2022-08-09T19:12:31.886Z,76684.03
2022-08-09T19:15:00.447Z,76686.00
2022-08-09T19:17:31.346Z,76684.03
2022-08-09T19:20:16.457Z,76697.94
2022-08-09T19:22:50.367Z,76713.84
2022-08-09T19:25:42.758Z,76721.78
2022-08-09T19:28:08.827Z,76729.75
2022-08-09T19:30:44.565Z,76745.63
2022-08-09T19:33:19.359Z,76753.59
2022-08-09T19:35:57.199Z,76771.47
2022-08-09T19:38:26.038Z,76775.44
2022-08-09T19:40:53.969Z,76765.50
2022-08-09T19:43:58.274Z,76765.50
2022-08-09T19:46:08.613Z,76787.38
2022-08-09T19:49:02.479Z,76801.28
2022-08-09T19:51:30.873Z,76805.25
2022-08-09T19:53:58.984Z,76825.13
2022-08-09T19:56:28.708Z,76821.16
2022-08-09T19:59:18.392Z,76833.06
2022-08-09T20:02:03.667Z,76839.03
2022-08-09T20:04:37.492Z,76856.94
2022-08-09T20:07:20.949Z,76854.94
2022-08-09T20:09:48.005Z,76839.03
2022-08-09T20:12:27.191Z,76847.00
2022-08-09T20:14:58.368Z,76848.97
2022-08-09T20:17:26.347Z,76852.94
2022-08-09T20:19:57.743Z,76870.84
2022-08-09T20:22:32.014Z,76872.81
2022-08-09T20:24:59.116Z,76884.75
2022-08-09T20:27:29.118Z,76886.72
2022-08-09T20:29:57.407Z,76902.63
2022-08-09T20:32:33.244Z,76894.69
2022-08-09T20:35:01.790Z,76908.59
2022-08-09T20:38:19.729Z,76912.56
2022-08-09T20:40:26.677Z,76916.53
2022-08-09T20:43:00.231Z,76920.53
2022-08-09T20:46:00.270Z,76930.47
2022-08-09T20:48:30.585Z,76938.41
2022-08-09T20:50:58.472Z,76938.41
2022-08-09T20:53:35.201Z,76952.31
2022-08-09T20:56:05.401Z,76968.22
2022-08-09T20:58:32.400Z,76978.16
2022-08-09T21:01:13.547Z,76984.13
2022-08-09T21:05:49.101Z,76990.06
2022-08-09T21:06:35.159Z,76980.13
2022-08-09T21:09:02.615Z,76986.09
2022-08-09T21:14:16.595Z,76980.13
2022-08-09T21:16:44.017Z,77009.94
2022-08-09T21:20:18.783Z,77021.88
2022-08-09T21:21:59.760Z,77027.84
2022-08-09T21:24:28.965Z,77039.75
2022-08-09T21:27:10.472Z,77051.69
2022-08-09T21:29:49.592Z,77057.66
2022-08-09T21:32:18.654Z,77067.59
2022-08-09T21:34:49.263Z,77077.53
2022-08-09T21:37:18.238Z,77085.47
2022-08-09T21:39:45.111Z,77079.50
2022-08-09T21:42:17.131Z,77075.53
2022-08-09T21:44:44.604Z,77085.47
2022-08-09T21:47:17.422Z,77085.47
2022-08-09T21:49:46.455Z,77085.47
2022-08-09T21:52:17.316Z,77093.44
2022-08-09T21:54:59.541Z,77103.38
2022-08-09T21:57:38.324Z,77103.38
2022-08-09T22:00:25.320Z,77107.34
2022-08-09T22:02:58.360Z,77115.28
2022-08-09T22:05:36.877Z,77119.25
2022-08-09T22:08:12.831Z,77127.22
2022-08-09T22:11:01.063Z,77141.13
2022-08-09T22:13:34.250Z,77149.06
2022-08-09T22:16:04.022Z,77151.06
2022-08-09T22:18:33.026Z,77141.13
2022-08-09T22:21:00.609Z,77155.03
2022-08-09T22:23:35.425Z,77153.06
2022-08-09T22:26:23.349Z,77153.06
2022-08-09T22:29:07.039Z,77164.97
2022-08-09T22:31:35.707Z,77174.91
2022-08-09T22:34:02.267Z,77180.88
2022-08-09T22:36:28.867Z,77188.81
2022-08-09T22:39:47.318Z,77190.81
2022-08-09T22:41:59.335Z,77204.72
2022-08-09T22:44:32.673Z,77210.69
2022-08-09T22:48:10.307Z,77212.69
2022-08-09T22:49:46.197Z,77218.63
2022-08-09T22:52:12.743Z,77220.63
2022-08-09T22:54:42.517Z,77218.63
2022-08-09T22:57:13.601Z,77226.59
2022-08-09T22:59:55.237Z,77238.50
2022-08-09T23:02:25.276Z,77250.44
2022-08-09T23:04:53.724Z,77256.41
2022-08-09T23:08:22.666Z,77258.38
2022-08-09T23:10:27.408Z,77268.31
2022-08-09T23:12:53.896Z,77270.31
2022-08-09T23:15:20.560Z,77274.28
2022-08-09T23:17:47.135Z,77278.25
2022-08-09T23:20:13.654Z,77294.16
2022-08-09T23:22:40.324Z,77306.09
2022-08-09T23:25:07.223Z,77310.06
2022-08-09T23:27:34.455Z,77314.03
2022-08-09T23:30:01.181Z,77323.97
2022-08-09T23:32:27.884Z,77327.97
2022-08-09T23:34:54.439Z,77331.94
2022-08-09T23:37:25.576Z,77335.91
2022-08-09T23:39:52.403Z,77343.84
2022-08-09T23:42:19.043Z,77345.84
2022-08-09T23:44:45.581Z,77333.91
2022-08-09T23:47:12.424Z,77343.84
2022-08-09T23:49:38.979Z,77339.88
2022-08-09T23:52:05.583Z,77345.84
2022-08-09T23:54:32.139Z,77347.84
2022-08-09T23:56:58.828Z,77339.88
2022-08-09T23:59:25.968Z,77339.88
